sensor_id;sensor_type;location;lat;lon;timestamp;pressure;altitude;pressure_sealevel;temperature;humidity
77452;BME280;66537;52.370;4.832;2023-02-22T00:00:50;101647.44;;;7.90;78.61
77452;BME280;66537;52.370;4.832;2023-02-22T00:03:20;101651.69;;;8.03;78.68
77452;BME280;66537;52.370;4.832;2023-02-22T00:05:54;101652.59;;;7.90;78.57
77452;BME280;66537;52.370;4.832;2023-02-22T00:08:22;101650.88;;;7.90;78.49
77452;BME280;66537;52.370;4.832;2023-02-22T00:10:47;101642.31;;;7.91;78.69
77452;BME280;66537;52.370;4.832;2023-02-22T00:13:16;101647.38;;;8.05;78.90
77452;BME280;66537;52.370;4.832;2023-02-22T00:15:42;101637.91;;;8.05;78.50
77452;BME280;66537;52.370;4.832;2023-02-22T00:18:12;101650.03;;;7.90;78.42
77452;BME280;66537;52.370;4.832;2023-02-22T00:20:38;101644.91;;;7.81;78.74
77452;BME280;66537;52.370;4.832;2023-02-22T00:23:05;101646.63;;;7.83;78.80
77452;BME280;66537;52.370;4.832;2023-02-22T00:25:34;101645.75;;;7.87;78.76
77452;BME280;66537;52.370;4.832;2023-02-22T00:28:01;101649.16;;;7.97;78.78
77452;BME280;66537;52.370;4.832;2023-02-22T00:30:28;101635.47;;;7.81;78.78
77452;BME280;66537;52.370;4.832;2023-02-22T00:32:57;101634.59;;;7.91;79.26
77452;BME280;66537;52.370;4.832;2023-02-22T00:35:24;101644.06;;;7.82;78.88
77452;BME280;66537;52.370;4.832;2023-02-22T00:37:52;101644.97;;;7.67;79.37
77452;BME280;66537;52.370;4.832;2023-02-22T00:40:24;101631.28;;;7.64;79.17
77452;BME280;66537;52.370;4.832;2023-02-22T00:42:50;101629.44;;;7.87;79.94
77452;BME280;66537;52.370;4.832;2023-02-22T00:45:22;101630.34;;;7.77;79.23
77452;BME280;66537;52.370;4.832;2023-02-22T00:47:48;101622.66;;;7.69;79.39
77452;BME280;66537;52.370;4.832;2023-02-22T00:50:16;101617.59;;;7.50;79.58
77452;BME280;66537;52.370;4.832;2023-02-22T00:52:41;101617.59;;;7.47;80.04
77452;BME280;66537;52.370;4.832;2023-02-22T00:55:09;101613.31;;;7.49;79.75
77452;BME280;66537;52.370;4.832;2023-02-22T00:57:35;101610.69;;;7.59;80.05
77452;BME280;66537;52.370;4.832;2023-02-22T01:00:04;101616.72;;;7.57;79.80
77452;BME280;66537;52.370;4.832;2023-02-22T01:02:37;101617.59;;;7.47;79.88
77452;BME280;66537;52.370;4.832;2023-02-22T01:05:03;101614.22;;;7.32;79.86
77452;BME280;66537;52.370;4.832;2023-02-22T01:07:29;101610.72;;;7.46;80.12
77452;BME280;66537;52.370;4.832;2023-02-22T01:09:55;101605.53;;;7.53;80.60
77452;BME280;66537;52.370;4.832;2023-02-22T01:12:20;101598.63;;;7.66;80.32
77452;BME280;66537;52.370;4.832;2023-02-22T01:14:46;101595.25;;;7.58;79.85
77452;BME280;66537;52.370;4.832;2023-02-22T01:17:12;101600.41;;;7.47;79.99
77452;BME280;66537;52.370;4.832;2023-02-22T01:19:37;101597.91;;;7.37;80.08
77452;BME280;66537;52.370;4.832;2023-02-22T01:22:07;101601.34;;;7.34;80.83
77452;BME280;66537;52.370;4.832;2023-02-22T01:24:32;101604.81;;;7.16;81.12
77452;BME280;66537;52.370;4.832;2023-02-22T01:26:57;101608.25;;;7.21;81.00
77452;BME280;66537;52.370;4.832;2023-02-22T01:29:23;101597.09;;;7.16;80.38
77452;BME280;66537;52.370;4.832;2023-02-22T01:31:53;101598.78;;;7.25;80.18
77452;BME280;66537;52.370;4.832;2023-02-22T01:34:20;101601.41;;;7.16;80.36
77452;BME280;66537;52.370;4.832;2023-02-22T01:36:45;101601.41;;;7.10;80.77
77452;BME280;66537;52.370;4.832;2023-02-22T01:39:11;101606.59;;;6.96;80.83
77452;BME280;66537;52.370;4.832;2023-02-22T01:41:36;101598.91;;;6.60;81.95
77452;BME280;66537;52.370;4.832;2023-02-22T01:46:54;101594.59;;;6.91;82.24
77452;BME280;66537;52.370;4.832;2023-02-22T01:49:20;101602.28;;;7.06;82.42
77452;BME280;66537;52.370;4.832;2023-02-22T01:51:49;101602.25;;;7.13;82.02
77452;BME280;66537;52.370;4.832;2023-02-22T01:54:24;101599.69;;;7.12;81.90
77452;BME280;66537;52.370;4.832;2023-02-22T01:59:48;101598.03;;;6.93;81.60
77452;BME280;66537;52.370;4.832;2023-02-22T02:02:15;101587.75;;;6.81;82.02
77452;BME280;66537;52.370;4.832;2023-02-22T02:04:43;101588.59;;;6.92;82.19
77452;BME280;66537;52.370;4.832;2023-02-22T02:07:12;101576.53;;;7.03;82.14
77452;BME280;66537;52.370;4.832;2023-02-22T02:10:02;101569.69;;;7.06;81.77
77452;BME280;66537;52.370;4.832;2023-02-22T02:12:31;101571.41;;;7.04;81.87
77452;BME280;66537;52.370;4.832;2023-02-22T02:15:28;101575.75;;;6.80;81.60
77452;BME280;66537;52.370;4.832;2023-02-22T02:17:58;101566.34;;;6.59;81.98
77452;BME280;66537;52.370;4.832;2023-02-22T02:34:17;101550.06;;;6.60;80.08
77452;BME280;66537;52.370;4.832;2023-02-22T02:39:52;101550.94;;;6.41;81.17
77452;BME280;66537;52.370;4.832;2023-02-22T02:42:25;101549.22;;;6.34;80.03
77452;BME280;66537;52.370;4.832;2023-02-22T02:45:01;101538.94;;;6.26;80.46
77452;BME280;66537;52.370;4.832;2023-02-22T02:47:31;101536.34;;;6.31;80.91
77452;BME280;66537;52.370;4.832;2023-02-22T02:52:28;101527.81;;;6.33;80.48
77452;BME280;66537;52.370;4.832;2023-02-22T02:54:56;101526.94;;;5.97;81.05
77452;BME280;66537;52.370;4.832;2023-02-22T02:57:22;101520.94;;;6.16;80.74
77452;BME280;66537;52.370;4.832;2023-02-22T02:59:49;101526.94;;;6.37;80.60
77452;BME280;66537;52.370;4.832;2023-02-22T03:02:49;101522.66;;;6.44;80.01
77452;BME280;66537;52.370;4.832;2023-02-22T03:08:22;101520.09;;;6.50;79.92
77452;BME280;66537;52.370;4.832;2023-02-22T03:11:05;101515.78;;;6.66;80.52
77452;BME280;66537;52.370;4.832;2023-02-22T03:19:06;101508.09;;;6.31;80.81
77452;BME280;66537;52.370;4.832;2023-02-22T03:21:42;101506.41;;;6.01;80.62
77452;BME280;66537;52.370;4.832;2023-02-22T03:24:24;101504.69;;;6.00;80.62
77452;BME280;66537;52.370;4.832;2023-02-22T03:27:02;101502.97;;;5.90;81.06
77452;BME280;66537;52.370;4.832;2023-02-22T03:29:35;101487.59;;;6.04;81.16
77452;BME280;66537;52.370;4.832;2023-02-22T03:32:04;101485.88;;;6.07;80.61
77452;BME280;66537;52.370;4.832;2023-02-22T03:34:39;101473.88;;;5.97;80.81
77452;BME280;66537;52.370;4.832;2023-02-22T03:37:13;101478.13;;;6.18;80.96
77452;BME280;66537;52.370;4.832;2023-02-22T03:39:42;101474.72;;;6.17;81.09
77452;BME280;66537;52.370;4.832;2023-02-22T03:42:13;101472.16;;;6.19;80.89
77452;BME280;66537;52.370;4.832;2023-02-22T03:44:42;101469.56;;;6.16;80.82
77452;BME280;66537;52.370;4.832;2023-02-22T03:47:12;101473.84;;;5.94;81.28
77452;BME280;66537;52.370;4.832;2023-02-22T03:49:52;101475.56;;;5.97;80.43
77452;BME280;66537;52.370;4.832;2023-02-22T03:52:19;101482.38;;;5.71;80.41
77452;BME280;66537;52.370;4.832;2023-02-22T03:54:48;101468.66;;;5.81;81.27
77452;BME280;66537;52.370;4.832;2023-02-22T04:00:15;101472.09;;;5.68;81.32
77452;BME280;66537;52.370;4.832;2023-02-22T04:02:42;101466.13;;;5.76;81.35
77452;BME280;66537;52.370;4.832;2023-02-22T04:05:08;101454.97;;;5.62;81.46
77452;BME280;66537;52.370;4.832;2023-02-22T04:07:33;101458.41;;;5.66;81.24
77452;BME280;66537;52.370;4.832;2023-02-22T04:09:59;101449.00;;;5.78;81.34
77452;BME280;66537;52.370;4.832;2023-02-22T04:12:26;101442.16;;;5.70;81.23
77452;BME280;66537;52.370;4.832;2023-02-22T04:14:52;101443.84;;;5.59;81.65
77452;BME280;66537;52.370;4.832;2023-02-22T04:17:17;101435.31;;;5.75;82.11
77452;BME280;66537;52.370;4.832;2023-02-22T04:19:43;101429.31;;;5.71;81.91
77452;BME280;66537;52.370;4.832;2023-02-22T04:22:10;101432.75;;;5.82;81.98
77452;BME280;66537;52.370;4.832;2023-02-22T04:24:35;101425.94;;;5.93;81.49
77452;BME280;66537;52.370;4.832;2023-02-22T04:27:01;101436.22;;;5.90;81.51
77452;BME280;66537;52.370;4.832;2023-02-22T04:29:26;101429.34;;;5.95;81.48
77452;BME280;66537;52.370;4.832;2023-02-22T04:31:51;101423.38;;;5.90;81.70
77452;BME280;66537;52.370;4.832;2023-02-22T04:34:17;101428.47;;;5.80;81.43
77452;BME280;66537;52.370;4.832;2023-02-22T04:36:42;101419.88;;;5.81;81.39
77452;BME280;66537;52.370;4.832;2023-02-22T04:39:08;101418.19;;;5.68;81.42
77452;BME280;66537;52.370;4.832;2023-02-22T04:41:34;101420.75;;;5.80;81.94
77452;BME280;66537;52.370;4.832;2023-02-22T04:43:59;101419.06;;;5.76;81.61
77452;BME280;66537;52.370;4.832;2023-02-22T04:46:24;101413.94;;;5.79;81.84
77452;BME280;66537;52.370;4.832;2023-02-22T04:48:50;101407.94;;;5.74;81.56
77452;BME280;66537;52.370;4.832;2023-02-22T04:51:15;101415.63;;;5.74;82.09
77452;BME280;66537;52.370;4.832;2023-02-22T04:53:41;101405.34;;;5.69;81.58
77452;BME280;66537;52.370;4.832;2023-02-22T04:56:06;101401.94;;;5.58;82.50
77452;BME280;66537;52.370;4.832;2023-02-22T04:58:31;101407.06;;;5.55;82.35
77452;BME280;66537;52.370;4.832;2023-02-22T05:01:00;101406.22;;;5.47;82.50
77452;BME280;66537;52.370;4.832;2023-02-22T05:03:25;101398.53;;;5.65;82.57
77452;BME280;66537;52.370;4.832;2023-02-22T05:05:51;101399.38;;;5.76;82.41
77452;BME280;66537;52.370;4.832;2023-02-22T05:08:16;101393.38;;;5.92;82.27
77452;BME280;66537;52.370;4.832;2023-02-22T05:10:42;101389.09;;;5.70;81.61
77452;BME280;66537;52.370;4.832;2023-02-22T05:13:07;101395.09;;;5.59;81.95
77452;BME280;66537;52.370;4.832;2023-02-22T05:15:33;101394.22;;;5.52;82.22
77452;BME280;66537;52.370;4.832;2023-02-22T05:17:58;101388.25;;;5.73;82.91
77452;BME280;66537;52.370;4.832;2023-02-22T05:20:29;101379.69;;;5.78;82.91
77452;BME280;66537;52.370;4.832;2023-02-22T05:22:57;101378.00;;;5.73;83.02
77452;BME280;66537;52.370;4.832;2023-02-22T05:25:23;101382.28;;;5.63;82.67
77452;BME280;66537;52.370;4.832;2023-02-22T05:27:53;101368.56;;;5.70;82.88
77452;BME280;66537;52.370;4.832;2023-02-22T05:30:21;101365.16;;;5.74;82.84
77452;BME280;66537;52.370;4.832;2023-02-22T05:32:49;101355.72;;;5.79;82.53
77452;BME280;66537;52.370;4.832;2023-02-22T05:35:14;101364.31;;;5.90;82.88
77452;BME280;66537;52.370;4.832;2023-02-22T05:37:39;101357.44;;;5.71;82.64
77452;BME280;66537;52.370;4.832;2023-02-22T05:40:05;101347.19;;;5.80;82.60
77452;BME280;66537;52.370;4.832;2023-02-22T05:42:32;101341.19;;;5.56;82.67
77452;BME280;66537;52.370;4.832;2023-02-22T05:44:57;101345.47;;;5.61;82.91
77452;BME280;66537;52.370;4.832;2023-02-22T05:47:24;101336.88;;;5.77;83.15
77452;BME280;66537;52.370;4.832;2023-02-22T05:49:49;101346.31;;;5.89;82.69
77452;BME280;66537;52.370;4.832;2023-02-22T05:52:15;101353.16;;;5.93;82.31
77452;BME280;66537;52.370;4.832;2023-02-22T05:54:40;101347.16;;;5.97;82.71
77452;BME280;66537;52.370;4.832;2023-02-22T05:57:06;101347.13;;;6.10;82.67
77452;BME280;66537;52.370;4.832;2023-02-22T05:59:31;101352.28;;;6.12;82.05
77452;BME280;66537;52.370;4.832;2023-02-22T06:01:57;101351.47;;;5.92;82.03
77452;BME280;66537;52.370;4.832;2023-02-22T06:04:22;101354.03;;;5.86;82.44
77452;BME280;66537;52.370;4.832;2023-02-22T06:06:48;101336.91;;;5.70;82.51
77452;BME280;66537;52.370;4.832;2023-02-22T06:09:13;101344.59;;;5.77;83.00
77452;BME280;66537;52.370;4.832;2023-02-22T06:11:38;101336.06;;;5.77;82.50
77452;BME280;66537;52.370;4.832;2023-02-22T06:14:04;101342.91;;;5.85;83.13
77452;BME280;66537;52.370;4.832;2023-02-22T06:16:29;101335.19;;;6.02;83.33
77452;BME280;66537;52.370;4.832;2023-02-22T06:18:56;101327.50;;;5.91;82.62
77452;BME280;66537;52.370;4.832;2023-02-22T06:21:22;101341.16;;;5.81;82.41
77452;BME280;66537;52.370;4.832;2023-02-22T06:23:47;101348.88;;;5.81;83.34
77452;BME280;66537;52.370;4.832;2023-02-22T06:26:15;101343.75;;;5.77;83.38
77452;BME280;66537;52.370;4.832;2023-02-22T06:28:41;101344.59;;;5.91;83.53
77452;BME280;66537;52.370;4.832;2023-02-22T06:31:06;101357.44;;;5.91;83.16
77452;BME280;66537;52.370;4.832;2023-02-22T06:33:32;101342.91;;;5.87;83.25
77452;BME280;66537;52.370;4.832;2023-02-22T06:35:57;101348.88;;;5.99;83.34
77452;BME280;66537;52.370;4.832;2023-02-22T06:38:24;101337.75;;;5.99;83.13
77452;BME280;66537;52.370;4.832;2023-02-22T06:40:50;101348.88;;;5.89;83.23
77452;BME280;66537;52.370;4.832;2023-02-22T06:43:15;101338.59;;;5.81;83.23
77452;BME280;66537;52.370;4.832;2023-02-22T06:45:41;101342.91;;;5.76;84.13
77452;BME280;66537;52.370;4.832;2023-02-22T06:48:06;101344.63;;;5.74;84.31
77452;BME280;66537;52.370;4.832;2023-02-22T06:50:33;101334.34;;;5.67;84.51
77452;BME280;66537;52.370;4.832;2023-02-22T06:52:58;101336.91;;;5.79;84.92
77452;BME280;66537;52.370;4.832;2023-02-22T06:55:26;101336.03;;;5.96;84.80
77452;BME280;66537;52.370;4.832;2023-02-22T06:57:52;101337.72;;;6.11;84.15
77452;BME280;66537;52.370;4.832;2023-02-22T07:00:19;101338.59;;;6.08;83.57
77452;BME280;66537;52.370;4.832;2023-02-22T07:02:46;101336.00;;;6.20;83.60
77452;BME280;66537;52.370;4.832;2023-02-22T07:05:17;101331.69;;;6.24;83.87
77452;BME280;66537;52.370;4.832;2023-02-22T07:07:43;101329.13;;;6.27;83.53
77452;BME280;66537;52.370;4.832;2023-02-22T07:10:26;101327.41;;;6.26;83.14
77452;BME280;66537;52.370;4.832;2023-02-22T07:12:52;101328.22;;;6.37;83.29
77452;BME280;66537;52.370;4.832;2023-02-22T07:15:20;101325.69;;;6.22;83.33
77452;BME280;66537;52.370;4.832;2023-02-22T07:17:46;101323.13;;;6.22;83.36
77452;BME280;66537;52.370;4.832;2023-02-22T07:20:11;101333.41;;;6.22;83.38
77452;BME280;66537;52.370;4.832;2023-02-22T07:22:37;101329.97;;;6.27;83.53
77452;BME280;66537;52.370;4.832;2023-02-22T07:25:05;101335.13;;;6.29;83.97
77452;BME280;66537;52.370;4.832;2023-02-22T07:27:31;101329.03;;;6.45;83.26
77452;BME280;66537;52.370;4.832;2023-02-22T07:29:56;101321.41;;;6.25;83.15
77452;BME280;66537;52.370;4.832;2023-02-22T07:32:21;101322.19;;;6.41;83.60
77452;BME280;66537;52.370;4.832;2023-02-22T07:34:47;101329.09;;;6.25;83.44
77452;BME280;66537;52.370;4.832;2023-02-22T07:37:12;101322.25;;;6.36;83.49
77452;BME280;66537;52.370;4.832;2023-02-22T07:39:38;101324.75;;;6.50;82.95
77452;BME280;66537;52.370;4.832;2023-02-22T07:42:06;101314.44;;;6.53;83.35
77452;BME280;66537;52.370;4.832;2023-02-22T07:44:31;101320.47;;;6.52;83.19
77452;BME280;66537;52.370;4.832;2023-02-22T07:46:56;101308.53;;;6.41;83.43
77452;BME280;66537;52.370;4.832;2023-02-22T07:49:22;101328.97;;;6.60;83.50
77452;BME280;66537;52.370;4.832;2023-02-22T07:51:47;101340.91;;;6.72;83.22
77452;BME280;66537;52.370;4.832;2023-02-22T07:54:12;101334.09;;;6.60;82.73
77452;BME280;66537;52.370;4.832;2023-02-22T07:56:46;101327.25;;;6.61;82.85
77452;BME280;66537;52.370;4.832;2023-02-22T07:59:13;101325.59;;;6.49;83.21
77452;BME280;66537;52.370;4.832;2023-02-22T08:01:38;101314.47;;;6.52;83.09
77452;BME280;66537;52.370;4.832;2023-02-22T08:04:04;101332.53;;;6.30;83.11
77452;BME280;66537;52.370;4.832;2023-02-22T08:06:29;101335.09;;;6.36;83.23
77452;BME280;66537;52.370;4.832;2023-02-22T08:08:56;101329.19;;;5.98;83.52
77452;BME280;66537;52.370;4.832;2023-02-22T08:11:23;101342.78;;;6.33;84.35
77452;BME280;66537;52.370;4.832;2023-02-22T08:13:48;101335.91;;;6.43;84.00
77452;BME280;66537;52.370;4.832;2023-02-22T08:16:13;101334.22;;;6.42;83.65
77452;BME280;66537;52.370;4.832;2023-02-22T08:18:39;101334.16;;;6.54;83.82
77452;BME280;66537;52.370;4.832;2023-02-22T08:21:05;101333.25;;;6.63;83.26
77452;BME280;66537;52.370;4.832;2023-02-22T08:23:30;101328.13;;;6.58;83.10
77452;BME280;66537;52.370;4.832;2023-02-22T08:26:06;101334.84;;;6.82;83.28
77452;BME280;66537;52.370;4.832;2023-02-22T08:28:32;101337.34;;;6.95;82.80
77452;BME280;66537;52.370;4.832;2023-02-22T08:30:57;101339.09;;;6.87;82.27
77452;BME280;66537;52.370;4.832;2023-02-22T08:33:22;101333.19;;;6.72;82.34
77452;BME280;66537;52.370;4.832;2023-02-22T08:35:48;101329.81;;;6.65;82.78
77452;BME280;66537;52.370;4.832;2023-02-22T08:38:18;101333.19;;;6.72;83.09
77452;BME280;66537;52.370;4.832;2023-02-22T08:40:44;101326.34;;;6.72;82.98
77452;BME280;66537;52.370;4.832;2023-02-22T08:43:09;101332.34;;;6.70;82.95
77452;BME280;66537;52.370;4.832;2023-02-22T08:45:34;101325.50;;;6.69;82.94
77452;BME280;66537;52.370;4.832;2023-02-22T08:48:00;101323.69;;;6.90;82.66
77452;BME280;66537;52.370;4.832;2023-02-22T08:50:28;101330.63;;;6.72;82.33
77452;BME280;66537;52.370;4.832;2023-02-22T08:52:56;101323.69;;;6.86;82.94
77452;BME280;66537;52.370;4.832;2023-02-22T08:55:25;101322.00;;;6.82;83.19
77452;BME280;66537;52.370;4.832;2023-02-22T08:57:50;101318.63;;;6.72;82.37
77452;BME280;66537;52.370;4.832;2023-02-22T09:00:20;101319.41;;;6.91;82.92
77452;BME280;66537;52.370;4.832;2023-02-22T09:02:48;101321.97;;;6.83;82.58
77452;BME280;66537;52.370;4.832;2023-02-22T09:05:14;101321.13;;;6.86;82.52
77452;BME280;66537;52.370;4.832;2023-02-22T09:07:41;101311.72;;;6.82;82.61
77452;BME280;66537;52.370;4.832;2023-02-22T09:10:10;101309.94;;;6.94;82.43
77452;BME280;66537;52.370;4.832;2023-02-22T09:12:39;101301.31;;;7.00;81.64
77452;BME280;66537;52.370;4.832;2023-02-22T09:15:05;101307.28;;;7.03;81.38
77452;BME280;66537;52.370;4.832;2023-02-22T09:17:30;101293.66;;;6.94;81.69
77452;BME280;66537;52.370;4.832;2023-02-22T09:19:55;101291.88;;;7.02;81.54
77452;BME280;66537;52.370;4.832;2023-02-22T09:22:21;101302.19;;;6.97;81.45
77452;BME280;66537;52.370;4.832;2023-02-22T09:24:46;101288.44;;;7.01;81.73
77452;BME280;66537;52.370;4.832;2023-02-22T09:27:11;101283.13;;;7.24;81.10
77452;BME280;66537;52.370;4.832;2023-02-22T09:29:37;101278.75;;;7.32;80.39
77452;BME280;66537;52.370;4.832;2023-02-22T09:32:03;101279.59;;;7.37;80.38
77452;BME280;66537;52.370;4.832;2023-02-22T09:34:29;101269.94;;;7.62;80.43
77452;BME280;66537;52.370;4.832;2023-02-22T09:36:59;101279.16;;;7.84;79.65
77452;BME280;66537;52.370;4.832;2023-02-22T09:39:25;101272.06;;;8.02;79.18
77452;BME280;66537;52.370;4.832;2023-02-22T09:41:57;101274.78;;;7.89;78.20
77452;BME280;66537;52.370;4.832;2023-02-22T09:45:02;101262.91;;;7.74;78.19
77452;BME280;66537;52.370;4.832;2023-02-22T09:47:42;101261.19;;;7.76;78.83
77452;BME280;66537;52.370;4.832;2023-02-22T09:50:16;101261.66;;;8.10;78.51
77452;BME280;66537;52.370;4.832;2023-02-22T09:55:27;101252.31;;;8.01;77.26
77452;BME280;66537;52.370;4.832;2023-02-22T09:57:59;101253.97;;;8.08;76.63
77452;BME280;66537;52.370;4.832;2023-02-22T10:00:32;101249.00;;;7.90;77.09
77452;BME280;66537;52.370;4.832;2023-02-22T10:06:09;101251.28;;;8.16;77.00
77452;BME280;66537;52.370;4.832;2023-02-22T10:08:35;101253.13;;;8.03;76.79
77452;BME280;66537;52.370;4.832;2023-02-22T10:17:14;101265.88;;;8.15;76.16
77452;BME280;66537;52.370;4.832;2023-02-22T10:20:05;101287.25;;;8.27;76.63
77452;BME280;66537;52.370;4.832;2023-02-22T10:25:34;101299.53;;;8.75;76.13
77452;BME280;66537;52.370;4.832;2023-02-22T10:28:20;101294.19;;;8.87;75.05
77452;BME280;66537;52.370;4.832;2023-02-22T10:30:51;101276.50;;;9.18;74.30
77452;BME280;66537;52.370;4.832;2023-02-22T10:33:23;101272.09;;;9.24;73.78
77452;BME280;66537;52.370;4.832;2023-02-22T10:35:53;101272.88;;;9.31;73.24
77452;BME280;66537;52.370;4.832;2023-02-22T10:38:31;101267.59;;;9.37;73.45
77452;BME280;66537;52.370;4.832;2023-02-22T10:41:18;101264.91;;;9.44;73.49
77452;BME280;66537;52.370;4.832;2023-02-22T10:43:45;101252.47;;;9.14;72.88
77452;BME280;66537;52.370;4.832;2023-02-22T10:46:14;101257.78;;;9.05;73.22
77452;BME280;66537;52.370;4.832;2023-02-22T10:48:43;101244.53;;;9.26;74.03
77452;BME280;66537;52.370;4.832;2023-02-22T10:51:09;101232.63;;;9.18;72.41
77452;BME280;66537;52.370;4.832;2023-02-22T10:53:37;101243.91;;;9.14;72.60
77452;BME280;66537;52.370;4.832;2023-02-22T10:58:49;101224.75;;;9.27;72.76
77452;BME280;66537;52.370;4.832;2023-02-22T11:01:21;101237.31;;;9.45;72.79
77452;BME280;66537;52.370;4.832;2023-02-22T11:04:11;101273.69;;;9.33;72.73
77452;BME280;66537;52.370;4.832;2023-02-22T11:06:39;101274.97;;;9.07;73.07
77452;BME280;66537;52.370;4.832;2023-02-22T11:09:12;101284.44;;;9.07;73.14
77452;BME280;66537;52.370;4.832;2023-02-22T11:11:41;101267.13;;;9.14;73.33
77452;BME280;66537;52.370;4.832;2023-02-22T11:14:07;101278.38;;;9.09;73.60
77452;BME280;66537;52.370;4.832;2023-02-22T11:17:07;101268.88;;;9.10;72.80
77452;BME280;66537;52.370;4.832;2023-02-22T11:19:34;101267.88;;;9.20;73.39
77452;BME280;66537;52.370;4.832;2023-02-22T11:24:28;101259.00;;;9.36;73.22
77452;BME280;66537;52.370;4.832;2023-02-22T11:26:59;101259.78;;;9.40;72.54
77452;BME280;66537;52.370;4.832;2023-02-22T11:29:31;101254.63;;;9.40;73.36
77452;BME280;66537;52.370;4.832;2023-02-22T11:32:00;101246.81;;;9.43;72.97
77452;BME280;66537;52.370;4.832;2023-02-22T11:34:37;101256.94;;;9.55;72.66
77452;BME280;66537;52.370;4.832;2023-02-22T11:40:20;101248.91;;;9.71;70.85
77452;BME280;66537;52.370;4.832;2023-02-22T11:43:08;101237.63;;;9.75;71.42
77452;BME280;66537;52.370;4.832;2023-02-22T11:45:37;101237.97;;;9.57;71.82
77452;BME280;66537;52.370;4.832;2023-02-22T11:48:05;101220.56;;;9.67;70.99
77452;BME280;66537;52.370;4.832;2023-02-22T11:50:51;101223.47;;;9.93;72.30
77452;BME280;66537;52.370;4.832;2023-02-22T11:58:42;101218.72;;;10.18;69.18
77452;BME280;66537;52.370;4.832;2023-02-22T12:01:28;101206.63;;;10.18;69.51
77452;BME280;66537;52.370;4.832;2023-02-22T12:17:52;101184.38;;;10.11;69.38
77452;BME280;66537;52.370;4.832;2023-02-22T12:20:22;101176.44;;;10.19;68.58
77452;BME280;66537;52.370;4.832;2023-02-22T12:23:19;101176.22;;;10.29;69.40
77452;BME280;66537;52.370;4.832;2023-02-22T12:26:07;101179.84;;;10.21;68.56
77452;BME280;66537;52.370;4.832;2023-02-22T12:28:55;101182.25;;;10.30;69.22
77452;BME280;66537;52.370;4.832;2023-02-22T12:37:10;101183.59;;;10.46;69.51
77452;BME280;66537;52.370;4.832;2023-02-22T12:39:53;101177.75;;;10.38;69.14
77452;BME280;66537;52.370;4.832;2023-02-22T12:42:32;101178.84;;;10.28;69.36
77452;BME280;66537;52.370;4.832;2023-02-22T12:45:12;101177.72;;;10.39;69.74
77452;BME280;66537;52.370;4.832;2023-02-22T12:47:58;101176.03;;;10.38;69.00
77452;BME280;66537;52.370;4.832;2023-02-22T12:50:28;101177.38;;;10.54;69.43
77452;BME280;66537;52.370;4.832;2023-02-22T12:53:12;101181.78;;;10.51;70.11
77452;BME280;66537;52.370;4.832;2023-02-22T12:55:49;101181.59;;;10.57;68.61
77452;BME280;66537;52.370;4.832;2023-02-22T12:58:26;101179.06;;;10.55;68.21
77452;BME280;66537;52.370;4.832;2023-02-22T13:01:13;101183.28;;;10.59;68.85
77452;BME280;66537;52.370;4.832;2023-02-22T13:03:42;101176.59;;;10.51;68.84
77452;BME280;66537;52.370;4.832;2023-02-22T13:06:35;101184.28;;;10.54;68.67
77452;BME280;66537;52.370;4.832;2023-02-22T13:12:08;101180.09;;;10.48;69.25
77452;BME280;66537;52.370;4.832;2023-02-22T13:20:12;101175.59;;;10.56;68.99
77452;BME280;66537;52.370;4.832;2023-02-22T13:25:24;101174.03;;;10.49;69.76
77452;BME280;66537;52.370;4.832;2023-02-22T13:28:02;101178.16;;;10.58;69.95
77452;BME280;66537;52.370;4.832;2023-02-22T13:30:42;101178.66;;;10.73;70.35
77452;BME280;66537;52.370;4.832;2023-02-22T13:33:23;101176.09;;;10.35;69.81
77452;BME280;66537;52.370;4.832;2023-02-22T13:41:37;101178.72;;;9.92;71.85
77452;BME280;66537;52.370;4.832;2023-02-22T13:44:16;101175.34;;;9.89;71.68
77452;BME280;66537;52.370;4.832;2023-02-22T13:52:54;101169.19;;;9.94;72.26
77452;BME280;66537;52.370;4.832;2023-02-22T13:55:25;101164.72;;;10.01;71.43
77452;BME280;66537;52.370;4.832;2023-02-22T13:58:05;101162.63;;;10.21;71.69
77452;BME280;66537;52.370;4.832;2023-02-22T14:10:51;101180.25;;;10.01;71.64
77452;BME280;66537;52.370;4.832;2023-02-22T14:13:18;101179.81;;;10.22;71.53
77452;BME280;66537;52.370;4.832;2023-02-22T14:18:26;101192.16;;;10.10;71.88
77452;BME280;66537;52.370;4.832;2023-02-22T14:21:04;101179.41;;;10.00;72.25
77452;BME280;66537;52.370;4.832;2023-02-22T14:23:37;101184.34;;;10.13;72.43
77452;BME280;66537;52.370;4.832;2023-02-22T14:28:56;101182.56;;;9.73;72.36
77452;BME280;66537;52.370;4.832;2023-02-22T14:34:17;101185.38;;;10.04;72.76
77452;BME280;66537;52.370;4.832;2023-02-22T14:37:02;101179.41;;;10.00;72.71
77452;BME280;66537;52.370;4.832;2023-02-22T14:39:47;101188.47;;;10.21;72.66
77452;BME280;66537;52.370;4.832;2023-02-22T14:42:42;101189.50;;;10.14;72.82
77452;BME280;66537;52.370;4.832;2023-02-22T14:50:17;101194.75;;;10.48;71.62
77452;BME280;66537;52.370;4.832;2023-02-22T14:52:59;101191.22;;;10.52;71.49
77452;BME280;66537;52.370;4.832;2023-02-22T14:55:30;101186.28;;;10.43;71.09
77452;BME280;66537;52.370;4.832;2023-02-22T14:58:06;101193.47;;;10.29;71.16
77452;BME280;66537;52.370;4.832;2023-02-22T15:00:44;101195.75;;;10.42;71.65
77452;BME280;66537;52.370;4.832;2023-02-22T15:05:48;101188.03;;;10.41;71.64
77452;BME280;66537;52.370;4.832;2023-02-22T15:08:17;101195.84;;;10.38;72.27
77452;BME280;66537;52.370;4.832;2023-02-22T15:10:52;101208.59;;;10.47;71.91
77452;BME280;66537;52.370;4.832;2023-02-22T15:13:26;101207.34;;;10.25;71.62
77452;BME280;66537;52.370;4.832;2023-02-22T15:15:57;101206.63;;;10.18;71.70
77452;BME280;66537;52.370;4.832;2023-02-22T15:20:56;101188.13;;;9.95;72.54
77452;BME280;66537;52.370;4.832;2023-02-22T15:23:37;101197.47;;;10.02;72.50
77452;BME280;66537;52.370;4.832;2023-02-22T15:26:03;101198.19;;;10.10;72.64
77452;BME280;66537;52.370;4.832;2023-02-22T15:28:29;101202.50;;;10.08;72.59